Time;durP1;ratioP1;P1;durP2;ratioP2;P2;SDS_P1;SDS_P2;PMS_P1;PMS_P2;Temp;Humidity;BMP_temperature;BMP_pressure;BME280_temperature;BME280_humidity;BME280_pressure;Samples;Min_cycle;Max_cycle;Signal;HPM_P1;HPM_P2
2023/01/02 00:01:28;;;;;;;25.60;20.95;;;6.70;99.90;;;;;;5032040;28;20297;-86
2023/01/02 00:03:57;;;;;;;22.85;20.35;;;6.70;99.90;;;;;;5032095;28;20301;-87
2023/01/02 00:06:25;;;;;;;23.05;20.73;;;6.80;99.90;;;;;;5031457;28;20257;-87
2023/01/02 00:08:54;;;;;;;21.27;19.13;;;6.80;99.90;;;;;;5031196;28;20226;-86
2023/01/02 00:11:22;;;;;;;20.90;18.77;;;6.80;99.90;;;;;;5031752;28;20222;-87
2023/01/02 00:13:50;;;;;;;22.83;19.88;;;6.70;99.90;;;;;;5031754;28;20211;-87
2023/01/02 00:16:18;;;;;;;26.75;22.20;;;6.70;99.90;;;;;;5031492;28;20234;-86
2023/01/02 00:18:48;;;;;;;23.13;20.52;;;6.70;99.90;;;;;;5031531;28;20218;-86
2023/01/02 00:21:16;;;;;;;24.42;21.65;;;6.70;99.90;;;;;;5031550;28;20226;-87
2023/01/02 00:23:45;;;;;;;21.83;19.58;;;6.70;99.90;;;;;;5031597;28;20218;-87
2023/01/02 00:26:13;;;;;;;21.67;19.48;;;6.60;99.90;;;;;;5031349;28;20238;-86
2023/01/02 00:28:41;;;;;;;23.35;19.88;;;6.60;99.90;;;;;;5031028;28;20241;-85
2023/01/02 00:31:12;;;;;;;24.17;21.23;;;6.60;99.90;;;;;;5031742;28;20219;-85
2023/01/02 00:33:40;;;;;;;21.00;18.80;;;6.50;99.90;;;;;;5031589;28;20218;-85
2023/01/02 00:36:12;;;;;;;21.70;18.83;;;6.50;99.90;;;;;;5032780;28;20313;-85
2023/01/02 00:38:41;;;;;;;22.55;20.15;;;6.50;99.90;;;;;;5033192;28;20201;-85
2023/01/02 00:41:10;;;;;;;25.13;19.88;;;6.50;99.90;;;;;;5033555;28;20210;-85
2023/01/02 00:43:38;;;;;;;21.45;19.17;;;6.40;99.90;;;;;;5033601;28;20206;-85
2023/01/02 00:46:07;;;;;;;22.27;18.92;;;6.40;99.90;;;;;;5033257;28;20234;-85
2023/01/02 00:48:39;;;;;;;23.73;18.42;;;6.40;99.90;;;;;;5032820;28;20227;-84
2023/01/02 00:51:08;;;;;;;24.23;21.60;;;6.40;99.90;;;;;;5033344;28;20213;-85
2023/01/02 00:53:38;;;;;;;25.58;20.23;;;6.40;99.90;;;;;;5033701;28;20224;-85
2023/01/02 00:56:06;;;;;;;22.67;19.05;;;6.40;99.90;;;;;;5033161;28;20236;-85
2023/01/02 00:58:35;;;;;;;28.83;22.65;;;6.40;99.90;;;;;;5032676;28;20202;-85
2023/01/02 01:01:04;;;;;;;24.83;20.23;;;6.30;99.90;;;;;;5032786;28;20208;-85
2023/01/02 01:03:33;;;;;;;28.58;21.17;;;6.30;99.90;;;;;;5033123;28;20218;-85
2023/01/02 01:06:07;;;;;;;22.52;20.13;;;6.30;99.90;;;;;;5033014;28;20233;-85
2023/01/02 01:08:37;;;;;;;24.70;19.13;;;6.30;99.90;;;;;;5032906;28;20226;-84
2023/01/02 01:11:06;;;;;;;24.92;20.55;;;6.30;99.90;;;;;;5032899;28;20206;-84
2023/01/02 01:13:35;;;;;;;22.33;20.08;;;6.30;99.90;;;;;;5032765;28;20518;-85
2023/01/02 01:16:07;;;;;;;23.08;19.23;;;6.40;99.90;;;;;;5032773;28;20232;-85
2023/01/02 01:18:36;;;;;;;23.30;19.85;;;6.30;99.90;;;;;;5032883;28;20203;-86
2023/01/02 01:21:09;;;;;;;24.80;20.30;;;6.30;99.90;;;;;;5032940;28;20286;-86
2023/01/02 01:23:39;;;;;;;21.33;19.10;;;6.30;99.90;;;;;;5032690;28;20221;-85
2023/01/02 01:26:10;;;;;;;22.48;18.42;;;6.30;99.90;;;;;;5032695;28;20247;-85
2023/01/02 01:28:39;;;;;;;24.15;19.63;;;6.30;99.90;;;;;;5032304;28;20230;-86
2023/01/02 01:31:09;;;;;;;23.55;20.20;;;6.30;99.90;;;;;;5032975;28;20211;-86
2023/01/02 01:33:39;;;;;;;22.27;19.45;;;6.30;99.90;;;;;;5032904;28;20250;-86
2023/01/02 01:36:10;;;;;;;21.10;19.00;;;6.30;99.90;;;;;;5032724;28;20233;-85
2023/01/02 01:38:41;;;;;;;18.35;16.50;;;6.30;99.90;;;;;;5032186;28;20214;-85
2023/01/02 01:41:10;;;;;;;19.00;16.90;;;6.20;99.90;;;;;;5032805;28;20209;-85
2023/01/02 01:43:41;;;;;;;20.05;18.05;;;6.20;99.90;;;;;;5036154;28;20233;-86
2023/01/02 01:46:24;;;;;;;23.25;18.63;;;6.20;99.90;;;;;;5036631;28;20236;-85
2023/01/02 01:49:02;;;;;;;20.98;17.65;;;6.20;99.90;;;;;;5036009;28;20236;-85
2023/01/02 01:51:34;;;;;;;20.48;18.38;;;6.20;99.90;;;;;;5036769;28;20217;-85
2023/01/02 01:54:08;;;;;;;19.95;18.00;;;6.20;99.90;;;;;;5036669;28;20198;-85
2023/01/02 01:56:41;;;;;;;21.38;19.02;;;6.20;99.90;;;;;;5036353;28;20222;-85
2023/01/02 01:59:11;;;;;;;21.25;18.95;;;6.20;99.90;;;;;;5036609;28;20206;-85
2023/01/02 02:01:40;;;;;;;18.80;16.83;;;6.20;99.90;;;;;;5036536;28;20205;-85
2023/01/02 02:04:10;;;;;;;23.17;20.27;;;6.30;99.90;;;;;;5036199;28;20210;-85
2023/01/02 02:06:39;;;;;;;26.15;18.63;;;6.30;99.90;;;;;;5036228;28;20229;-84
2023/01/02 02:09:14;;;;;;;20.58;18.17;;;6.20;99.90;;;;;;5036222;28;20233;-85
2023/01/02 02:11:43;;;;;;;24.83;19.50;;;6.20;99.90;;;;;;5036277;28;20209;-84
2023/01/02 02:14:11;;;;;;;19.67;17.60;;;6.10;99.90;;;;;;5036079;28;20207;-85
2023/01/02 02:16:45;;;;;;;27.00;19.30;;;6.10;99.90;;;;;;5035735;28;20234;-85
2023/01/02 02:19:48;;;;;;;21.63;19.35;;;6.00;99.90;;;;;;5036093;28;20203;-85
2023/01/02 02:22:42;;;;;;;26.48;19.55;;;6.00;99.90;;;;;;5035984;28;20210;-85
2023/01/02 02:25:38;;;;;;;22.35;19.42;;;6.00;99.90;;;;;;5035620;28;20219;-85
2023/01/02 02:28:33;;;;;;;21.13;18.90;;;6.00;99.90;;;;;;5033907;28;20215;-85
2023/01/02 02:31:09;;;;;;;27.70;20.08;;;6.00;99.90;;;;;;5035646;28;20213;-85
2023/01/02 02:33:44;;;;;;;26.05;19.73;;;5.90;99.90;;;;;;5035508;28;20206;-85
2023/01/02 02:36:19;;;;;;;23.13;19.40;;;5.90;99.90;;;;;;5035889;28;20245;-85
2023/01/02 02:39:02;;;;;;;24.98;19.10;;;5.90;99.90;;;;;;5035407;28;20248;-86
2023/01/02 02:41:35;;;;;;;23.98;19.40;;;5.90;99.90;;;;;;5035732;28;20205;-85
2023/01/02 02:44:12;;;;;;;23.75;20.58;;;5.90;99.90;;;;;;5035700;28;20203;-85
2023/01/02 02:46:50;;;;;;;23.52;20.50;;;5.90;99.90;;;;;;5035482;28;20222;-86
2023/01/02 02:49:29;;;;;;;26.92;20.10;;;5.90;99.90;;;;;;5035744;28;20233;-84
2023/01/02 02:52:06;;;;;;;21.05;18.92;;;5.90;99.90;;;;;;5035692;28;20214;-86
2023/01/02 02:54:41;;;;;;;25.33;20.15;;;5.90;99.90;;;;;;5034112;28;20206;-85
2023/01/02 02:57:12;;;;;;;29.30;21.70;;;5.90;99.90;;;;;;5035023;28;20216;-85
2023/01/02 02:59:42;;;;;;;23.13;20.65;;;5.90;99.90;;;;;;5035117;28;20210;-86
2023/01/02 03:02:15;;;;;;;27.25;20.77;;;6.00;99.90;;;;;;5035475;28;20207;-85
2023/01/02 03:04:45;;;;;;;23.73;21.13;;;6.00;99.90;;;;;;5035321;28;20207;-86
2023/01/02 03:07:25;;;;;;;30.25;20.88;;;6.00;99.90;;;;;;5034963;28;20211;-85
2023/01/02 03:10:08;;;;;;;35.15;22.80;;;6.00;99.90;;;;;;5035037;28;20218;-85
2023/01/02 03:12:48;;;;;;;29.30;21.20;;;6.00;99.90;;;;;;5034814;28;20216;-85
2023/01/02 03:15:24;;;;;;;24.08;20.58;;;6.00;99.90;;;;;;5035120;28;20236;-85
2023/01/02 03:18:08;;;;;;;21.45;19.25;;;5.90;99.90;;;;;;5034949;28;20206;-85
2023/01/02 03:20:41;;;;;;;24.92;21.48;;;5.90;99.90;;;;;;5034859;28;20210;-85
2023/01/02 03:23:15;;;;;;;31.58;22.02;;;5.90;99.90;;;;;;5034629;28;20218;-85
2023/01/02 03:25:44;;;;;;;22.70;20.27;;;5.90;99.90;;;;;;5035049;28;20229;-86
2023/01/02 03:28:16;;;;;;;30.92;20.15;;;6.00;99.90;;;;;;5034777;28;20206;-84
2023/01/02 03:30:45;;;;;;;22.92;20.52;;;5.90;99.90;;;;;;5034710;28;20236;-85
2023/01/02 03:33:19;;;;;;;38.03;22.58;;;5.90;99.90;;;;;;5034999;28;20206;-84
2023/01/02 03:35:53;;;;;;;34.00;20.35;;;5.90;99.90;;;;;;5034455;28;20238;-85
2023/01/02 03:38:24;;;;;;;24.75;19.95;;;5.80;99.90;;;;;;5034700;28;20210;-85
2023/01/02 03:41:00;;;;;;;22.38;20.15;;;5.90;99.90;;;;;;5034910;28;20202;-85
2023/01/02 03:43:31;;;;;;;23.15;19.95;;;5.90;99.90;;;;;;5034542;28;20210;-85
2023/01/02 03:46:07;;;;;;;26.73;22.02;;;5.90;99.90;;;;;;5034442;28;20286;-85
2023/01/02 03:48:41;;;;;;;23.92;21.30;;;5.90;99.90;;;;;;5034097;28;20210;-85
2023/01/02 03:51:09;;;;;;;27.73;21.63;;;5.90;99.90;;;;;;5034404;28;20292;-85
2023/01/02 03:53:39;;;;;;;33.58;21.70;;;5.90;99.90;;;;;;5034327;28;20293;-85
2023/01/02 03:56:22;;;;;;;23.80;20.50;;;5.90;99.90;;;;;;5034078;28;20226;-85
2023/01/02 03:58:55;;;;;;;32.72;22.33;;;5.90;99.90;;;;;;5034045;28;20217;-85
2023/01/02 04:01:32;;;;;;;29.25;21.65;;;5.90;99.90;;;;;;5034275;28;20210;-85
2023/01/02 04:04:09;;;;;;;25.35;21.20;;;5.80;99.90;;;;;;5034338;28;20202;-84
2023/01/02 04:06:41;;;;;;;27.67;21.88;;;5.80;99.90;;;;;;5033510;28;20249;-85
2023/01/02 04:09:12;;;;;;;25.80;21.35;;;5.80;99.90;;;;;;5033975;28;20225;-84
2023/01/02 04:11:44;;;;;;;23.08;20.63;;;5.80;99.90;;;;;;5033850;28;20206;-83
2023/01/02 04:14:16;;;;;;;32.15;21.45;;;5.80;99.90;;;;;;5033879;28;20220;-84
2023/01/02 04:16:46;;;;;;;23.05;20.15;;;5.80;99.90;;;;;;5033667;28;20251;-85
2023/01/02 04:19:20;;;;;;;42.10;21.80;;;5.80;99.90;;;;;;5034116;28;20212;-85
2023/01/02 04:21:52;;;;;;;29.77;23.80;;;5.80;99.90;;;;;;5033893;28;20221;-85
2023/01/02 04:24:26;;;;;;;30.42;20.55;;;5.90;99.90;;;;;;5034017;28;20214;-85
2023/01/02 04:26:58;;;;;;;28.95;21.33;;;5.90;99.90;;;;;;5033547;28;20209;-85
2023/01/02 04:29:26;;;;;;;24.65;21.80;;;5.80;99.90;;;;;;5033408;28;20226;-86
2023/01/02 04:32:02;;;;;;;24.23;21.65;;;5.80;99.90;;;;;;5034209;28;20208;-85
2023/01/02 04:34:35;;;;;;;30.15;21.98;;;5.80;99.90;;;;;;5033307;28;20213;-85
2023/01/02 04:37:03;;;;;;;24.92;22.20;;;5.80;99.90;;;;;;5033251;28;20217;-85
2023/01/02 04:39:33;;;;;;;24.63;21.38;;;5.80;99.90;;;;;;5033299;28;20207;-85
2023/01/02 04:42:01;;;;;;;24.23;21.48;;;5.80;99.90;;;;;;5033214;28;20214;-85
2023/01/02 04:44:29;;;;;;;24.23;21.25;;;5.90;99.90;;;;;;5033660;28;20210;-85
2023/01/02 04:46:57;;;;;;;25.58;21.65;;;5.80;99.90;;;;;;5033304;28;20214;-85
2023/01/02 04:49:26;;;;;;;23.63;21.08;;;5.90;99.90;;;;;;5033292;28;20226;-85
2023/01/02 04:51:56;;;;;;;24.33;20.58;;;5.90;99.90;;;;;;5033230;28;20210;-86
2023/01/02 04:54:24;;;;;;;25.55;21.17;;;5.90;99.90;;;;;;5033143;28;20212;-86
2023/01/02 04:56:52;;;;;;;29.10;21.77;;;5.80;99.90;;;;;;5033040;28;20222;-86
2023/01/02 04:59:21;;;;;;;27.90;20.88;;;5.90;99.90;;;;;;5033277;28;20293;-85
2023/01/02 05:01:49;;;;;;;26.08;20.17;;;5.90;99.90;;;;;;5033157;28;20217;-86
2023/01/02 05:04:17;;;;;;;22.40;20.10;;;5.80;99.90;;;;;;5032519;28;20290;-86
2023/01/02 05:06:45;;;;;;;28.13;22.02;;;5.80;99.90;;;;;;5032649;28;20226;-86
2023/01/02 05:09:16;;;;;;;31.70;23.05;;;5.80;99.90;;;;;;5033161;28;20221;-86
2023/01/02 05:11:44;;;;;;;22.25;19.88;;;5.80;99.90;;;;;;5033222;28;20211;-85
2023/01/02 05:14:12;;;;;;;31.63;20.77;;;5.80;99.90;;;;;;5032859;28;20210;-86
2023/01/02 05:16:40;;;;;;;30.27;21.83;;;5.80;99.90;;;;;;5031925;28;20245;-85
2023/01/02 05:19:08;;;;;;;29.48;22.13;;;5.90;99.90;;;;;;5033104;28;20206;-86
2023/01/02 05:24:25;;;;;;;28.52;22.95;;;5.80;99.90;;;;;;5033017;28;20206;-85
2023/01/02 05:26:54;;;;;;;25.60;20.00;;;5.80;99.90;;;;;;5032242;28;20199;-85
2023/01/02 05:29:22;;;;;;;29.60;21.63;;;5.80;99.90;;;;;;5032486;28;20206;-85
2023/01/02 05:31:50;;;;;;;25.40;19.70;;;5.80;99.90;;;;;;5032399;28;20225;-85
2023/01/02 05:34:18;;;;;;;46.58;20.25;;;5.80;99.90;;;;;;5032491;28;20217;-85
2023/01/02 05:36:47;;;;;;;34.70;21.75;;;5.80;99.90;;;;;;5032310;28;20234;-85
2023/01/02 05:39:15;;;;;;;21.30;19.13;;;5.80;99.90;;;;;;5032569;28;20212;-86
2023/01/02 05:41:45;;;;;;;24.13;19.35;;;5.80;99.90;;;;;;5032626;28;20285;-85
2023/01/02 05:44:13;;;;;;;22.42;20.08;;;5.80;99.90;;;;;;5032405;28;20202;-85
2023/01/02 05:46:41;;;;;;;22.30;19.05;;;5.80;99.90;;;;;;5032613;28;20234;-86
2023/01/02 05:49:11;;;;;;;26.02;21.67;;;5.80;99.90;;;;;;5032719;28;20206;-85
2023/01/02 05:51:40;;;;;;;22.65;19.90;;;5.80;99.90;;;;;;5032042;28;20305;-85
2023/01/02 05:54:08;;;;;;;21.88;19.35;;;5.70;99.90;;;;;;5032616;28;20206;-85
2023/01/02 05:56:36;;;;;;;24.00;20.52;;;5.80;99.90;;;;;;5032237;28;20226;-85
2023/01/02 05:59:08;;;;;;;31.75;22.02;;;5.70;99.90;;;;;;5032144;28;20214;-86
2023/01/02 06:01:36;;;;;;;24.80;21.15;;;5.70;99.90;;;;;;5032945;28;20203;-86
2023/01/02 06:04:05;;;;;;;22.00;19.73;;;5.70;99.90;;;;;;5032428;28;20241;-85
2023/01/02 06:06:35;;;;;;;23.38;19.15;;;5.70;99.90;;;;;;5032415;28;20232;-85
2023/01/02 06:09:04;;;;;;;23.05;20.42;;;5.70;99.90;;;;;;5031933;28;20297;-86
2023/01/02 06:11:33;;;;;;;27.98;21.95;;;5.70;99.90;;;;;;5031980;28;20325;-85
2023/01/02 06:14:02;;;;;;;25.58;20.40;;;5.80;99.90;;;;;;5032419;28;20210;-85
2023/01/02 06:16:31;;;;;;;24.85;21.05;;;5.70;99.90;;;;;;5032468;28;20312;-85
2023/01/02 06:19:00;;;;;;;23.73;20.60;;;5.70;99.90;;;;;;5031855;28;20237;-85
2023/01/02 06:21:28;;;;;;;29.42;21.77;;;5.60;99.90;;;;;;5032107;28;20222;-85
2023/01/02 06:23:58;;;;;;;22.35;19.40;;;5.50;99.90;;;;;;5032071;28;20214;-85
2023/01/02 06:26:27;;;;;;;26.05;20.90;;;5.50;99.90;;;;;;5032713;28;20226;-85
2023/01/02 06:29:02;;;;;;;28.98;21.73;;;5.50;99.90;;;;;;5034455;28;20204;-85
2023/01/02 06:31:32;;;;;;;25.05;21.33;;;5.60;99.90;;;;;;5035645;28;20230;-85
2023/01/02 06:34:02;;;;;;;25.55;20.77;;;5.50;99.90;;;;;;5035922;28;20214;-85
2023/01/02 06:36:32;;;;;;;25.90;19.40;;;5.60;99.90;;;;;;5035344;28;20238;-85
2023/01/02 06:39:01;;;;;;;23.42;20.48;;;5.60;99.90;;;;;;5035581;28;20240;-85
2023/01/02 06:41:30;;;;;;;28.33;21.23;;;5.60;99.90;;;;;;5036011;28;20210;-85
2023/01/02 06:43:58;;;;;;;30.70;21.25;;;5.50;99.90;;;;;;5036270;28;20218;-84
2023/01/02 06:46:26;;;;;;;22.55;19.13;;;5.50;99.90;;;;;;5035498;28;20226;-85
2023/01/02 06:48:56;;;;;;;20.73;18.52;;;5.50;99.90;;;;;;5035181;28;20213;-85
2023/01/02 06:51:24;;;;;;;23.65;19.55;;;5.50;99.90;;;;;;5035154;28;20233;-85
2023/01/02 06:53:52;;;;;;;26.20;19.67;;;5.50;99.90;;;;;;5035455;28;20210;-85
2023/01/02 06:56:21;;;;;;;33.08;20.23;;;5.50;99.90;;;;;;5035740;28;20253;-84
2023/01/02 06:58:49;;;;;;;23.83;19.55;;;5.50;99.90;;;;;;5035194;28;20202;-86
2023/01/02 07:01:20;;;;;;;25.13;21.15;;;5.50;99.90;;;;;;5035309;28;20202;-85
2023/01/02 07:03:48;;;;;;;24.67;20.52;;;5.50;99.90;;;;;;5035374;28;20210;-85
2023/01/02 07:06:20;;;;;;;25.30;20.90;;;5.50;99.90;;;;;;5035029;28;20234;-85
2023/01/02 07:08:48;;;;;;;20.35;18.25;;;5.50;99.90;;;;;;5035089;28;20214;-86
2023/01/02 07:11:18;;;;;;;31.27;21.15;;;5.50;99.90;;;;;;5034553;28;20222;-86
2023/01/02 07:13:48;;;;;;;29.17;21.73;;;5.50;99.90;;;;;;5034955;28;20205;-85
2023/01/02 07:16:18;;;;;;;20.88;18.30;;;5.50;99.90;;;;;;5035063;28;20226;-86
2023/01/02 07:18:46;;;;;;;27.15;20.80;;;5.50;99.90;;;;;;5034816;28;20202;-85
2023/01/02 07:21:16;;;;;;;24.58;19.67;;;5.40;99.90;;;;;;5035202;28;20213;-86
2023/01/02 07:23:47;;;;;;;22.33;19.40;;;5.50;99.90;;;;;;5034881;28;20232;-85
2023/01/02 07:26:15;;;;;;;22.90;19.85;;;5.50;99.90;;;;;;5034441;28;20242;-85
2023/01/02 07:28:44;;;;;;;28.38;19.40;;;5.50;99.90;;;;;;5034706;28;20213;-85
2023/01/02 07:31:13;;;;;;;23.40;19.33;;;5.50;99.90;;;;;;5034629;28;20325;-85
2023/01/02 07:33:42;;;;;;;21.00;18.80;;;5.50;99.90;;;;;;5035035;28;20212;-85
2023/01/02 07:36:12;;;;;;;23.58;19.65;;;5.50;99.90;;;;;;5034753;28;20292;-86
2023/01/02 07:38:41;;;;;;;26.33;19.88;;;5.40;99.90;;;;;;5034206;28;20213;-86
2023/01/02 07:41:15;;;;;;;23.70;20.15;;;5.40;99.90;;;;;;5033551;28;20206;-86
2023/01/02 07:43:44;;;;;;;26.00;20.15;;;5.50;99.90;;;;;;5034375;28;20214;-85
2023/01/02 07:46:14;;;;;;;24.45;19.13;;;5.40;99.90;;;;;;5034408;28;20313;-86
2023/01/02 07:48:42;;;;;;;24.25;19.17;;;5.40;99.90;;;;;;5034222;28;20203;-85
2023/01/02 07:51:11;;;;;;;28.10;20.90;;;5.50;99.90;;;;;;5033765;28;20222;-87
2023/01/02 07:53:40;;;;;;;24.23;19.90;;;5.50;99.90;;;;;;5035058;28;20213;-89
2023/01/02 07:56:09;;;;;;;25.50;20.02;;;5.50;99.90;;;;;;5034655;28;20222;-89
2023/01/02 07:58:39;;;;;;;23.70;19.30;;;5.50;99.90;;;;;;5034932;28;20293;-86
2023/01/02 08:01:15;;;;;;;21.02;18.70;;;5.40;99.90;;;;;;5032913;28;20213;-86
2023/01/02 08:03:43;;;;;;;31.80;20.38;;;5.30;99.90;;;;;;5014960;28;20203;-84
2023/01/02 08:06:14;;;;;;;26.52;19.77;;;5.30;99.90;;;;;;5024681;28;20240;-84
2023/01/02 08:08:42;;;;;;;20.60;18.45;;;5.30;99.90;;;;;;5034466;28;20201;-84
2023/01/02 08:11:13;;;;;;;23.98;19.85;;;5.40;99.90;;;;;;5035023;28;20214;-87
2023/01/02 08:13:43;;;;;;;24.08;19.13;;;5.40;99.90;;;;;;5028632;28;20207;-86
2023/01/02 08:16:40;;;;;;;24.40;20.33;;;5.40;99.90;;;;;;5028615;28;20236;-84
2023/01/02 08:19:11;;;;;;;24.55;20.75;;;5.40;99.90;;;;;;4981963;28;20210;-89
2023/01/02 08:21:48;;;;;;;20.45;17.88;;;5.40;99.90;;;;;;5033360;28;20195;-88
2023/01/02 08:24:16;;;;;;;22.88;19.27;;;5.40;99.90;;;;;;5032453;28;20206;-86
2023/01/02 08:26:44;;;;;;;22.73;19.20;;;5.40;99.90;;;;;;5033580;28;20229;-89
2023/01/02 08:29:14;;;;;;;30.60;18.20;;;5.40;99.90;;;;;;5033824;28;20213;-86
2023/01/02 08:31:51;;;;;;;31.85;19.23;;;5.40;99.90;;;;;;5032020;28;20225;-86
2023/01/02 08:34:19;;;;;;;24.40;19.83;;;5.40;99.90;;;;;;5033903;28;20217;-86
2023/01/02 08:36:48;;;;;;;26.63;21.88;;;5.40;99.90;;;;;;5030419;28;20230;-86
2023/01/02 08:39:16;;;;;;;27.38;18.40;;;5.40;99.90;;;;;;5034141;28;20223;-86
2023/01/02 08:41:44;;;;;;;27.05;19.52;;;5.50;99.90;;;;;;5033724;28;20202;-86
2023/01/02 08:44:15;;;;;;;24.88;20.80;;;5.50;99.90;;;;;;5033417;28;20206;-86
2023/01/02 08:46:43;;;;;;;25.92;19.00;;;5.50;99.90;;;;;;5022949;28;20237;-86
2023/01/02 08:49:18;;;;;;;21.20;17.38;;;5.50;99.90;;;;;;5033570;28;20226;-86
2023/01/02 08:51:52;;;;;;;20.67;17.10;;;5.50;99.90;;;;;;5033896;28;20229;-85
2023/01/02 08:54:38;;;;;;;23.48;18.45;;;5.50;99.90;;;;;;5033538;28;20199;-88
2023/01/02 08:57:06;;;;;;;33.70;18.70;;;5.50;99.90;;;;;;5033193;28;20206;-87
2023/01/02 08:59:36;;;;;;;30.80;19.33;;;5.50;99.90;;;;;;5033517;28;20214;-88
2023/01/02 09:02:04;;;;;;;31.80;18.85;;;5.40;99.90;;;;;;5033620;28;20194;-87
2023/01/02 09:04:32;;;;;;;23.83;17.95;;;5.50;99.90;;;;;;5033668;28;20206;-92
2023/01/02 09:07:01;;;;;;;20.98;17.60;;;5.50;99.90;;;;;;5033050;28;20210;-92
2023/01/02 09:09:29;;;;;;;31.40;19.42;;;5.50;99.90;;;;;;5033282;28;20210;-92
2023/01/02 09:11:59;;;;;;;24.13;17.17;;;5.50;99.90;;;;;;5033261;28;20214;-92
2023/01/02 09:14:32;;;;;;;29.38;18.67;;;5.50;99.90;;;;;;5033451;28;20245;-92
2023/01/02 09:17:02;;;;;;;23.27;17.55;;;5.50;99.90;;;;;;5033305;28;20222;-93
2023/01/02 09:19:30;;;;;;;24.30;17.48;;;5.60;99.90;;;;;;5033372;28;20206;-92
2023/01/02 09:22:00;;;;;;;21.95;17.40;;;5.60;99.90;;;;;;5032922;28;20305;-92
2023/01/02 09:24:28;;;;;;;21.08;17.67;;;5.50;99.90;;;;;;5030326;28;20252;-95
2023/01/02 09:26:57;;;;;;;20.40;17.00;;;5.50;99.90;;;;;;5024854;28;20202;-92
2023/01/02 09:29:25;;;;;;;22.42;16.95;;;5.60;99.90;;;;;;5033006;28;20206;-92
2023/01/02 09:31:53;;;;;;;21.02;17.17;;;5.60;99.90;;;;;;5033151;28;20225;-92
2023/01/02 09:34:23;;;;;;;19.55;16.95;;;5.70;99.90;;;;;;5033101;28;20234;-92
2023/01/02 09:36:52;;;;;;;21.67;18.15;;;5.70;99.90;;;;;;5032846;28;20236;-92
2023/01/02 09:39:20;;;;;;;25.95;16.00;;;5.70;99.90;;;;;;5029112;28;20289;-92
2023/01/02 09:41:58;;;;;;;16.65;14.02;;;5.70;99.90;;;;;;5025838;28;20237;-89
2023/01/02 09:44:30;;;;;;;18.08;14.77;;;5.70;99.90;;;;;;5033424;28;20225;-90
2023/01/02 09:47:03;;;;;;;17.35;15.38;;;5.70;99.90;;;;;;5017121;28;20289;-88
2023/01/02 09:49:43;;;;;;;20.35;14.93;;;5.70;99.90;;;;;;5026661;28;20210;-88
2023/01/02 09:52:15;;;;;;;16.33;14.63;;;5.70;99.90;;;;;;5032931;28;20289;-87
2023/01/02 09:54:44;;;;;;;16.38;14.50;;;5.70;99.90;;;;;;5027302;28;20210;-88
2023/01/02 09:57:24;;;;;;;18.08;14.52;;;5.80;99.90;;;;;;5017825;28;20206;-87
2023/01/02 10:00:01;;;;;;;16.52;13.60;;;5.80;99.90;;;;;;5032684;28;20221;-87
2023/01/02 10:02:40;;;;;;;25.05;14.77;;;5.80;99.90;;;;;;5032680;28;20194;-87
2023/01/02 10:05:31;;;;;;;20.75;14.70;;;5.80;99.90;;;;;;5036532;28;20225;-88
2023/01/02 10:08:08;;;;;;;20.15;15.15;;;5.80;99.90;;;;;;5036501;28;20207;-88
2023/01/02 10:10:40;;;;;;;15.70;14.07;;;5.80;99.90;;;;;;5023436;28;20205;-87
2023/01/02 10:13:17;;;;;;;15.98;14.18;;;5.80;99.90;;;;;;5016727;28;20251;-87
2023/01/02 10:15:48;;;;;;;17.35;14.65;;;5.70;99.90;;;;;;5020724;28;20218;-87
2023/01/02 10:18:23;;;;;;;15.63;13.13;;;5.70;99.90;;;;;;5036063;28;20222;-87
2023/01/02 10:20:57;;;;;;;19.80;15.43;;;5.60;99.90;;;;;;5036706;28;20206;-87
2023/01/02 10:23:28;;;;;;;20.83;15.07;;;5.60;99.90;;;;;;5036167;28;20202;-87
2023/01/02 10:26:03;;;;;;;16.38;14.55;;;5.60;99.90;;;;;;5038508;28;20237;-86
2023/01/02 10:28:41;;;;;;;16.00;13.52;;;5.60;99.90;;;;;;5037309;28;20286;-89
2023/01/02 10:31:15;;;;;;;15.77;14.02;;;5.70;99.90;;;;;;5036208;28;20213;-88
2023/01/02 10:33:47;;;;;;;15.40;13.50;;;5.70;99.90;;;;;;5036134;28;20256;-88
2023/01/02 10:36:23;;;;;;;15.73;14.02;;;5.70;99.90;;;;;;5027036;28;20317;-88
2023/01/02 10:38:53;;;;;;;15.95;13.07;;;5.70;99.90;;;;;;5030743;28;20201;-88
2023/01/02 10:41:21;;;;;;;21.30;13.25;;;5.70;99.90;;;;;;5023698;28;20194;-88
2023/01/02 10:43:54;;;;;;;18.02;13.95;;;5.60;99.90;;;;;;5035300;28;20202;-88
2023/01/02 10:46:22;;;;;;;15.27;13.73;;;5.70;99.90;;;;;;5018965;28;20250;-88
2023/01/02 10:48:51;;;;;;;15.30;13.73;;;5.60;99.90;;;;;;5017520;28;20221;-91
2023/01/02 10:51:21;;;;;;;17.40;14.95;;;5.70;99.90;;;;;;5035325;28;20222;-89
2023/01/02 10:54:00;;;;;;;19.10;13.85;;;5.60;99.90;;;;;;5035092;28;20226;-89
2023/01/02 10:56:31;;;;;;;17.67;14.52;;;5.60;99.90;;;;;;5035691;28;20226;-90
2023/01/02 10:59:00;;;;;;;16.30;13.90;;;5.60;99.90;;;;;;5030358;28;20208;-89
2023/01/02 11:01:29;;;;;;;14.77;13.30;;;5.60;99.90;;;;;;5035382;28;20207;-89
2023/01/02 11:04:13;;;;;;;20.75;14.32;;;5.60;99.90;;;;;;5035948;28;20207;-89
2023/01/02 11:06:53;;;;;;;16.50;14.15;;;5.60;99.90;;;;;;5015473;28;20229;-88
2023/01/02 11:09:23;;;;;;;13.80;12.40;;;5.60;99.90;;;;;;5015926;28;20213;-89
2023/01/02 11:11:54;;;;;;;15.40;12.95;;;5.50;99.90;;;;;;5015741;28;20207;-89
2023/01/02 11:14:27;;;;;;;23.48;15.27;;;5.50;99.90;;;;;;5016047;28;20216;-89
2023/01/02 11:17:02;;;;;;;14.05;12.15;;;5.50;99.90;;;;;;5030945;28;20259;-89
2023/01/02 11:19:31;;;;;;;14.48;12.07;;;5.50;99.90;;;;;;5015214;28;20210;-89
2023/01/02 11:22:01;;;;;;;13.63;11.68;;;5.50;99.90;;;;;;5015244;28;20207;-89
2023/01/02 11:24:31;;;;;;;20.85;13.70;;;5.50;99.90;;;;;;5015504;28;20275;-89
2023/01/02 11:27:02;;;;;;;15.02;12.73;;;5.50;99.90;;;;;;5015109;28;20205;-89
2023/01/02 11:29:33;;;;;;;16.42;13.07;;;5.50;99.90;;;;;;5015148;28;20207;-89
2023/01/02 11:32:03;;;;;;;16.23;13.65;;;5.50;99.90;;;;;;5014852;28;20207;-88
2023/01/02 11:34:35;;;;;;;13.65;12.30;;;5.50;99.90;;;;;;5025090;28;20211;-89
2023/01/02 11:37:17;;;;;;;15.88;14.18;;;5.50;99.90;;;;;;5033916;28;20213;-88
2023/01/02 11:39:58;;;;;;;13.45;12.10;;;5.50;99.90;;;;;;5033130;28;20217;-89
2023/01/02 11:45:17;;;;;;;15.25;11.45;;;5.50;99.90;;;;;;5011262;28;20226;-90
2023/01/02 11:47:48;;;;;;;23.58;12.65;;;5.50;99.90;;;;;;5033823;28;20214;-88
2023/01/02 11:50:24;;;;;;;14.13;12.68;;;5.50;99.90;;;;;;5034182;28;20213;-89
2023/01/02 11:52:58;;;;;;;19.65;13.00;;;5.60;99.90;;;;;;5033486;28;20285;-90
2023/01/02 11:56:18;;;;;;;13.43;12.10;;;5.60;99.90;;;;;;5034904;28;20227;-89
2023/01/02 11:58:57;;;;;;;17.70;13.63;;;5.70;99.90;;;;;;5035089;28;20210;-89
2023/01/02 12:01:31;;;;;;;15.88;13.60;;;5.70;99.90;;;;;;5034525;28;20209;-90
2023/01/02 12:04:00;;;;;;;32.78;14.75;;;5.70;99.90;;;;;;5034135;28;20209;-89
2023/01/02 12:06:45;;;;;;;14.20;12.75;;;5.70;99.90;;;;;;5033175;28;20230;-89
2023/01/02 12:09:26;;;;;;;17.40;14.65;;;5.60;99.90;;;;;;5033720;28;20206;-89
2023/01/02 12:12:15;;;;;;;15.68;13.77;;;5.60;99.90;;;;;;5033840;28;20202;-90
2023/01/02 12:15:06;;;;;;;13.43;12.05;;;5.50;99.90;;;;;;5032954;28;20225;-90
2023/01/02 12:17:47;;;;;;;13.48;12.07;;;5.50;99.90;;;;;;5032930;28;20199;-87
2023/01/02 12:20:32;;;;;;;17.23;14.07;;;5.50;99.90;;;;;;5032651;28;20202;-87
2023/01/02 12:23:16;;;;;;;15.45;13.50;;;5.50;99.90;;;;;;5013477;28;20218;-87
2023/01/02 12:26:00;;;;;;;15.80;13.43;;;5.50;99.90;;;;;;5024018;28;20249;-87
2023/01/02 12:29:00;;;;;;;15.73;13.80;;;5.50;99.90;;;;;;5032960;28;20215;-87
2023/01/02 12:31:51;;;;;;;18.40;14.20;;;5.60;99.90;;;;;;5033084;28;20214;-87
2023/01/02 12:34:32;;;;;;;17.67;14.30;;;5.60;99.90;;;;;;5032982;28;20233;-87
2023/01/02 12:37:15;;;;;;;18.70;13.95;;;5.60;99.90;;;;;;5032303;28;20301;-88
2023/01/02 12:40:34;;;;;;;15.98;14.18;;;5.60;99.90;;;;;;5025923;28;20232;-88
2023/01/02 12:43:24;;;;;;;15.98;13.85;;;5.60;99.90;;;;;;4977202;28;20202;-89
2023/01/02 12:46:01;;;;;;;14.65;13.15;;;5.60;99.90;;;;;;5022147;28;20223;-88
2023/01/02 12:48:44;;;;;;;17.50;13.38;;;5.60;99.90;;;;;;5021383;28;20205;-88
2023/01/02 12:51:19;;;;;;;15.93;13.23;;;5.60;99.90;;;;;;5022523;28;20209;-88
2023/01/02 12:54:05;;;;;;;17.15;14.70;;;5.60;99.90;;;;;;5023251;28;20296;-88
2023/01/02 12:56:56;;;;;;;19.42;14.63;;;5.60;99.90;;;;;;5022300;28;20231;-87
2023/01/02 12:59:44;;;;;;;16.52;14.57;;;5.60;99.90;;;;;;5022769;28;20210;-88
2023/01/02 13:02:24;;;;;;;17.00;14.93;;;5.60;99.90;;;;;;5022196;28;20207;-88
2023/01/02 13:04:57;;;;;;;16.73;14.02;;;5.60;99.90;;;;;;5021940;28;20222;-88
2023/01/02 13:07:31;;;;;;;20.27;14.93;;;5.60;99.90;;;;;;5021956;28;20206;-88
2023/01/02 13:10:04;;;;;;;18.10;13.82;;;5.60;99.90;;;;;;5014086;28;20214;-88